sensor_id;sensor_type;location;lat;lon;timestamp;temperature;humidity
35299;DHT22;21415;48.054;16.646;2022-11-20T00:00:56;9.20;47.70
35299;DHT22;21415;48.054;16.646;2022-11-20T00:03:22;9.20;47.80
35299;DHT22;21415;48.054;16.646;2022-11-20T00:05:48;9.20;47.80
35299;DHT22;21415;48.054;16.646;2022-11-20T00:08:14;9.40;48.00
35299;DHT22;21415;48.054;16.646;2022-11-20T00:10:40;9.30;48.00
35299;DHT22;21415;48.054;16.646;2022-11-20T00:13:06;9.30;48.60
35299;DHT22;21415;48.054;16.646;2022-11-20T00:15:32;9.30;48.10
35299;DHT22;21415;48.054;16.646;2022-11-20T00:17:58;9.30;48.00
35299;DHT22;21415;48.054;16.646;2022-11-20T00:20:24;9.30;48.00
35299;DHT22;21415;48.054;16.646;2022-11-20T00:22:50;9.30;47.90
35299;DHT22;21415;48.054;16.646;2022-11-20T00:25:16;9.40;48.00
35299;DHT22;21415;48.054;16.646;2022-11-20T00:27:42;9.20;47.90
35299;DHT22;21415;48.054;16.646;2022-11-20T00:30:08;9.20;47.90
35299;DHT22;21415;48.054;16.646;2022-11-20T00:32:34;9.20;47.90
35299;DHT22;21415;48.054;16.646;2022-11-20T00:35:00;9.20;47.90
35299;DHT22;21415;48.054;16.646;2022-11-20T00:37:25;9.20;47.90
35299;DHT22;21415;48.054;16.646;2022-11-20T00:39:51;9.20;47.90
35299;DHT22;21415;48.054;16.646;2022-11-20T00:42:17;9.20;47.90
35299;DHT22;21415;48.054;16.646;2022-11-20T00:44:43;9.20;48.00
35299;DHT22;21415;48.054;16.646;2022-11-20T00:47:09;9.20;48.00
35299;DHT22;21415;48.054;16.646;2022-11-20T00:49:34;9.20;48.00
35299;DHT22;21415;48.054;16.646;2022-11-20T00:52:00;9.20;47.90
35299;DHT22;21415;48.054;16.646;2022-11-20T00:54:26;9.20;47.90
35299;DHT22;21415;48.054;16.646;2022-11-20T00:56:55;9.20;47.70
35299;DHT22;21415;48.054;16.646;2022-11-20T00:59:20;9.20;47.50
35299;DHT22;21415;48.054;16.646;2022-11-20T01:01:46;9.20;47.60
35299;DHT22;21415;48.054;16.646;2022-11-20T01:04:12;9.20;47.60
35299;DHT22;21415;48.054;16.646;2022-11-20T01:06:39;9.20;47.50
35299;DHT22;21415;48.054;16.646;2022-11-20T01:09:07;9.20;47.60
35299;DHT22;21415;48.054;16.646;2022-11-20T01:11:36;9.30;47.60
35299;DHT22;21415;48.054;16.646;2022-11-20T01:14:05;9.30;47.60
35299;DHT22;21415;48.054;16.646;2022-11-20T01:16:34;9.30;47.60
35299;DHT22;21415;48.054;16.646;2022-11-20T01:19:02;9.30;47.70
35299;DHT22;21415;48.054;16.646;2022-11-20T01:21:33;9.30;47.70
35299;DHT22;21415;48.054;16.646;2022-11-20T01:23:59;9.30;47.60
35299;DHT22;21415;48.054;16.646;2022-11-20T01:26:28;9.40;47.70
35299;DHT22;21415;48.054;16.646;2022-11-20T01:28:55;9.40;47.60
35299;DHT22;21415;48.054;16.646;2022-11-20T01:31:26;9.40;47.60
35299;DHT22;21415;48.054;16.646;2022-11-20T01:33:54;9.40;47.40
35299;DHT22;21415;48.054;16.646;2022-11-20T01:36:21;9.40;47.40
35299;DHT22;21415;48.054;16.646;2022-11-20T01:38:51;9.40;47.20
35299;DHT22;21415;48.054;16.646;2022-11-20T01:41:16;9.40;47.10
35299;DHT22;21415;48.054;16.646;2022-11-20T01:44:02;9.50;47.10
35299;DHT22;21415;48.054;16.646;2022-11-20T01:46:28;9.50;47.00
35299;DHT22;21415;48.054;16.646;2022-11-20T01:49:27;9.50;47.00
35299;DHT22;21415;48.054;16.646;2022-11-20T01:52:24;9.50;46.40
35299;DHT22;21415;48.054;16.646;2022-11-20T01:55:13;9.50;46.60
35299;DHT22;21415;48.054;16.646;2022-11-20T01:57:41;9.50;46.60
35299;DHT22;21415;48.054;16.646;2022-11-20T02:00:13;9.50;47.10
35299;DHT22;21415;48.054;16.646;2022-11-20T02:02:42;9.50;46.90
35299;DHT22;21415;48.054;16.646;2022-11-20T02:05:18;9.50;47.00
35299;DHT22;21415;48.054;16.646;2022-11-20T02:07:46;9.50;46.90
35299;DHT22;21415;48.054;16.646;2022-11-20T02:10:13;9.60;47.20
35299;DHT22;21415;48.054;16.646;2022-11-20T02:12:39;9.60;47.10
35299;DHT22;21415;48.054;16.646;2022-11-20T02:15:24;9.60;47.10
35299;DHT22;21415;48.054;16.646;2022-11-20T02:17:49;9.60;47.10
35299;DHT22;21415;48.054;16.646;2022-11-20T02:20:15;9.60;47.20
35299;DHT22;21415;48.054;16.646;2022-11-20T02:22:53;9.60;47.30
35299;DHT22;21415;48.054;16.646;2022-11-20T02:25:21;9.60;47.30
35299;DHT22;21415;48.054;16.646;2022-11-20T02:27:47;9.60;47.50
35299;DHT22;21415;48.054;16.646;2022-11-20T02:30:13;9.60;47.60
35299;DHT22;21415;48.054;16.646;2022-11-20T02:32:39;9.50;47.70
35299;DHT22;21415;48.054;16.646;2022-11-20T02:37:43;9.60;48.00
35299;DHT22;21415;48.054;16.646;2022-11-20T02:40:10;9.60;48.00
35299;DHT22;21415;48.054;16.646;2022-11-20T02:42:37;9.60;48.10
35299;DHT22;21415;48.054;16.646;2022-11-20T02:45:04;9.60;48.10
35299;DHT22;21415;48.054;16.646;2022-11-20T02:47:30;9.60;48.20
35299;DHT22;21415;48.054;16.646;2022-11-20T02:49:56;9.60;48.20
35299;DHT22;21415;48.054;16.646;2022-11-20T02:52:23;9.60;48.30
35299;DHT22;21415;48.054;16.646;2022-11-20T02:54:48;9.60;48.40
35299;DHT22;21415;48.054;16.646;2022-11-20T02:57:14;9.60;48.50
35299;DHT22;21415;48.054;16.646;2022-11-20T02:59:40;9.60;48.50
35299;DHT22;21415;48.054;16.646;2022-11-20T03:02:06;9.70;48.50
35299;DHT22;21415;48.054;16.646;2022-11-20T03:04:32;9.60;48.40
35299;DHT22;21415;48.054;16.646;2022-11-20T03:06:57;9.60;48.40
35299;DHT22;21415;48.054;16.646;2022-11-20T03:09:23;9.80;48.50
35299;DHT22;21415;48.054;16.646;2022-11-20T03:11:49;9.70;48.30
35299;DHT22;21415;48.054;16.646;2022-11-20T03:14:15;9.70;48.40
35299;DHT22;21415;48.054;16.646;2022-11-20T03:16:40;9.60;48.30
35299;DHT22;21415;48.054;16.646;2022-11-20T03:19:06;9.60;48.40
35299;DHT22;21415;48.054;16.646;2022-11-20T03:21:35;9.60;48.40
35299;DHT22;21415;48.054;16.646;2022-11-20T03:24:01;9.60;48.30
35299;DHT22;21415;48.054;16.646;2022-11-20T03:26:27;9.60;48.40
35299;DHT22;21415;48.054;16.646;2022-11-20T03:28:58;9.60;48.40
35299;DHT22;21415;48.054;16.646;2022-11-20T03:31:29;9.60;48.40
35299;DHT22;21415;48.054;16.646;2022-11-20T03:33:57;9.60;48.50
35299;DHT22;21415;48.054;16.646;2022-11-20T03:36:23;9.60;48.50
35299;DHT22;21415;48.054;16.646;2022-11-20T03:38:49;9.60;48.50
35299;DHT22;21415;48.054;16.646;2022-11-20T03:41:21;9.60;48.50
35299;DHT22;21415;48.054;16.646;2022-11-20T03:43:52;9.70;48.30
35299;DHT22;21415;48.054;16.646;2022-11-20T03:46:18;9.60;48.20
35299;DHT22;21415;48.054;16.646;2022-11-20T03:48:44;9.70;48.20
35299;DHT22;21415;48.054;16.646;2022-11-20T03:51:12;9.60;48.10
35299;DHT22;21415;48.054;16.646;2022-11-20T03:53:39;9.60;48.10
35299;DHT22;21415;48.054;16.646;2022-11-20T03:56:06;9.60;48.10
35299;DHT22;21415;48.054;16.646;2022-11-20T03:58:33;9.60;48.20
35299;DHT22;21415;48.054;16.646;2022-11-20T04:01:08;9.60;48.10
35299;DHT22;21415;48.054;16.646;2022-11-20T04:03:35;9.60;48.00
35299;DHT22;21415;48.054;16.646;2022-11-20T04:06:03;9.60;48.10
35299;DHT22;21415;48.054;16.646;2022-11-20T04:08:30;9.60;48.00
35299;DHT22;21415;48.054;16.646;2022-11-20T04:10:56;9.60;48.10
35299;DHT22;21415;48.054;16.646;2022-11-20T04:13:21;9.60;48.10
35299;DHT22;21415;48.054;16.646;2022-11-20T04:15:47;9.60;48.10
35299;DHT22;21415;48.054;16.646;2022-11-20T04:18:13;9.60;48.00
35299;DHT22;21415;48.054;16.646;2022-11-20T04:20:39;9.60;48.00
35299;DHT22;21415;48.054;16.646;2022-11-20T04:23:04;9.60;47.90
35299;DHT22;21415;48.054;16.646;2022-11-20T04:25:30;9.60;48.00
35299;DHT22;21415;48.054;16.646;2022-11-20T04:27:56;9.50;48.00
35299;DHT22;21415;48.054;16.646;2022-11-20T04:30:21;9.50;48.10
35299;DHT22;21415;48.054;16.646;2022-11-20T04:32:47;9.50;48.20
35299;DHT22;21415;48.054;16.646;2022-11-20T04:35:13;9.50;48.40
35299;DHT22;21415;48.054;16.646;2022-11-20T04:37:39;9.40;48.40
35299;DHT22;21415;48.054;16.646;2022-11-20T04:40:05;9.40;48.50
35299;DHT22;21415;48.054;16.646;2022-11-20T04:42:31;9.40;48.60
35299;DHT22;21415;48.054;16.646;2022-11-20T04:44:57;9.40;48.50
35299;DHT22;21415;48.054;16.646;2022-11-20T04:47:23;9.40;48.60
35299;DHT22;21415;48.054;16.646;2022-11-20T04:49:48;9.30;48.60
35299;DHT22;21415;48.054;16.646;2022-11-20T04:52:14;9.30;48.70
35299;DHT22;21415;48.054;16.646;2022-11-20T04:54:40;9.30;48.80
35299;DHT22;21415;48.054;16.646;2022-11-20T04:57:06;9.30;48.90
35299;DHT22;21415;48.054;16.646;2022-11-20T04:59:31;9.30;48.90
35299;DHT22;21415;48.054;16.646;2022-11-20T05:01:57;9.20;48.90
35299;DHT22;21415;48.054;16.646;2022-11-20T05:04:23;9.20;49.40
35299;DHT22;21415;48.054;16.646;2022-11-20T05:06:50;9.20;49.00
35299;DHT22;21415;48.054;16.646;2022-11-20T05:09:15;9.20;49.10
35299;DHT22;21415;48.054;16.646;2022-11-20T05:11:41;9.20;49.10
35299;DHT22;21415;48.054;16.646;2022-11-20T05:14:07;9.20;49.20
35299;DHT22;21415;48.054;16.646;2022-11-20T05:16:34;9.30;49.30
35299;DHT22;21415;48.054;16.646;2022-11-20T05:19:01;9.30;49.40
35299;DHT22;21415;48.054;16.646;2022-11-20T05:21:27;9.30;49.30
35299;DHT22;21415;48.054;16.646;2022-11-20T05:23:53;9.30;49.30
35299;DHT22;21415;48.054;16.646;2022-11-20T05:26:21;9.30;49.20
35299;DHT22;21415;48.054;16.646;2022-11-20T05:28:47;9.30;49.20
35299;DHT22;21415;48.054;16.646;2022-11-20T05:31:21;9.30;49.10
35299;DHT22;21415;48.054;16.646;2022-11-20T05:33:47;9.40;49.20
35299;DHT22;21415;48.054;16.646;2022-11-20T05:36:14;9.30;49.10
35299;DHT22;21415;48.054;16.646;2022-11-20T05:38:40;9.30;49.20
35299;DHT22;21415;48.054;16.646;2022-11-20T05:41:11;9.10;49.10
35299;DHT22;21415;48.054;16.646;2022-11-20T05:43:39;9.40;49.40
35299;DHT22;21415;48.054;16.646;2022-11-20T05:46:06;9.20;49.30
35299;DHT22;21415;48.054;16.646;2022-11-20T05:48:32;9.20;49.40
35299;DHT22;21415;48.054;16.646;2022-11-20T05:50:59;9.20;49.40
35299;DHT22;21415;48.054;16.646;2022-11-20T05:53:25;9.20;49.60
35299;DHT22;21415;48.054;16.646;2022-11-20T05:56:12;9.20;49.40
35299;DHT22;21415;48.054;16.646;2022-11-20T05:58:38;9.20;49.70
35299;DHT22;21415;48.054;16.646;2022-11-20T06:01:05;9.20;49.70
35299;DHT22;21415;48.054;16.646;2022-11-20T06:03:32;9.20;49.80
35299;DHT22;21415;48.054;16.646;2022-11-20T06:05:59;9.20;49.80
35299;DHT22;21415;48.054;16.646;2022-11-20T06:08:25;9.20;49.80
35299;DHT22;21415;48.054;16.646;2022-11-20T06:10:50;9.20;49.80
35299;DHT22;21415;48.054;16.646;2022-11-20T06:13:16;9.20;49.70
35299;DHT22;21415;48.054;16.646;2022-11-20T06:15:42;9.20;49.80
35299;DHT22;21415;48.054;16.646;2022-11-20T06:18:13;9.20;49.70
35299;DHT22;21415;48.054;16.646;2022-11-20T06:20:38;9.10;49.70
35299;DHT22;21415;48.054;16.646;2022-11-20T06:23:04;9.10;49.80
35299;DHT22;21415;48.054;16.646;2022-11-20T06:25:30;9.10;49.80
35299;DHT22;21415;48.054;16.646;2022-11-20T06:27:56;9.20;49.90
35299;DHT22;21415;48.054;16.646;2022-11-20T06:30:21;9.10;49.90
35299;DHT22;21415;48.054;16.646;2022-11-20T06:32:47;9.00;49.90
35299;DHT22;21415;48.054;16.646;2022-11-20T06:35:13;9.10;50.00
35299;DHT22;21415;48.054;16.646;2022-11-20T06:37:39;9.00;49.90
35299;DHT22;21415;48.054;16.646;2022-11-20T06:40:05;9.10;49.90
35299;DHT22;21415;48.054;16.646;2022-11-20T06:42:32;9.10;50.00
35299;DHT22;21415;48.054;16.646;2022-11-20T06:44:58;9.10;50.00
35299;DHT22;21415;48.054;16.646;2022-11-20T06:47:23;9.10;50.00
35299;DHT22;21415;48.054;16.646;2022-11-20T06:49:49;9.10;50.10
35299;DHT22;21415;48.054;16.646;2022-11-20T06:52:15;9.10;50.10
35299;DHT22;21415;48.054;16.646;2022-11-20T06:54:40;9.10;50.10
35299;DHT22;21415;48.054;16.646;2022-11-20T06:57:06;9.10;50.10
35299;DHT22;21415;48.054;16.646;2022-11-20T06:59:32;9.10;50.10
35299;DHT22;21415;48.054;16.646;2022-11-20T07:01:58;9.10;50.10
35299;DHT22;21415;48.054;16.646;2022-11-20T07:04:23;9.00;50.10
35299;DHT22;21415;48.054;16.646;2022-11-20T07:06:49;9.10;50.10
35299;DHT22;21415;48.054;16.646;2022-11-20T07:09:15;9.00;50.20
35299;DHT22;21415;48.054;16.646;2022-11-20T07:11:41;9.00;50.20
35299;DHT22;21415;48.054;16.646;2022-11-20T07:14:07;9.00;50.30
35299;DHT22;21415;48.054;16.646;2022-11-20T07:16:32;9.00;50.30
35299;DHT22;21415;48.054;16.646;2022-11-20T07:18:58;9.00;50.10
35299;DHT22;21415;48.054;16.646;2022-11-20T07:21:24;9.00;50.10
35299;DHT22;21415;48.054;16.646;2022-11-20T07:23:50;9.00;50.10
35299;DHT22;21415;48.054;16.646;2022-11-20T07:26:15;9.00;50.30
35299;DHT22;21415;48.054;16.646;2022-11-20T07:28:44;9.00;50.40
35299;DHT22;21415;48.054;16.646;2022-11-20T07:31:10;9.00;51.00
35299;DHT22;21415;48.054;16.646;2022-11-20T07:33:37;9.00;50.50
35299;DHT22;21415;48.054;16.646;2022-11-20T07:36:03;9.00;50.40
35299;DHT22;21415;48.054;16.646;2022-11-20T07:38:29;9.00;50.50
35299;DHT22;21415;48.054;16.646;2022-11-20T07:40:55;9.00;50.50
35299;DHT22;21415;48.054;16.646;2022-11-20T07:43:24;9.00;50.50
35299;DHT22;21415;48.054;16.646;2022-11-20T07:45:50;9.00;50.50
35299;DHT22;21415;48.054;16.646;2022-11-20T07:48:16;9.10;50.60
35299;DHT22;21415;48.054;16.646;2022-11-20T07:50:42;9.10;50.60
35299;DHT22;21415;48.054;16.646;2022-11-20T07:53:07;9.10;50.50
35299;DHT22;21415;48.054;16.646;2022-11-20T07:55:33;9.10;50.40
35299;DHT22;21415;48.054;16.646;2022-11-20T07:57:59;9.10;50.40
35299;DHT22;21415;48.054;16.646;2022-11-20T08:00:25;9.20;50.40
35299;DHT22;21415;48.054;16.646;2022-11-20T08:02:51;9.20;50.40
35299;DHT22;21415;48.054;16.646;2022-11-20T08:05:17;9.20;51.00
35299;DHT22;21415;48.054;16.646;2022-11-20T08:07:44;9.20;50.30
35299;DHT22;21415;48.054;16.646;2022-11-20T08:10:12;9.20;50.30
35299;DHT22;21415;48.054;16.646;2022-11-20T08:12:46;9.20;50.50
35299;DHT22;21415;48.054;16.646;2022-11-20T08:15:31;9.20;50.60
35299;DHT22;21415;48.054;16.646;2022-11-20T08:18:04;9.20;50.80
35299;DHT22;21415;48.054;16.646;2022-11-20T08:20:30;9.20;50.90
35299;DHT22;21415;48.054;16.646;2022-11-20T08:23:04;9.20;50.70
35299;DHT22;21415;48.054;16.646;2022-11-20T08:25:33;9.30;50.70
35299;DHT22;21415;48.054;16.646;2022-11-20T08:28:00;9.30;50.70
35299;DHT22;21415;48.054;16.646;2022-11-20T08:30:26;9.40;50.70
35299;DHT22;21415;48.054;16.646;2022-11-20T08:32:52;9.40;50.60
35299;DHT22;21415;48.054;16.646;2022-11-20T08:35:20;9.40;50.70
35299;DHT22;21415;48.054;16.646;2022-11-20T08:37:48;9.50;50.70
35299;DHT22;21415;48.054;16.646;2022-11-20T08:40:15;9.50;50.50
35299;DHT22;21415;48.054;16.646;2022-11-20T08:42:50;9.60;50.50
35299;DHT22;21415;48.054;16.646;2022-11-20T08:45:17;9.70;50.20
35299;DHT22;21415;48.054;16.646;2022-11-20T08:47:44;9.70;50.40
35299;DHT22;21415;48.054;16.646;2022-11-20T08:50:11;9.80;50.30
35299;DHT22;21415;48.054;16.646;2022-11-20T08:52:37;9.90;50.10
35299;DHT22;21415;48.054;16.646;2022-11-20T08:55:04;10.00;50.20
35299;DHT22;21415;48.054;16.646;2022-11-20T08:57:37;10.00;50.00
35299;DHT22;21415;48.054;16.646;2022-11-20T09:00:05;10.10;49.70
35299;DHT22;21415;48.054;16.646;2022-11-20T09:02:31;10.10;49.80
35299;DHT22;21415;48.054;16.646;2022-11-20T09:04:58;10.30;49.80
35299;DHT22;21415;48.054;16.646;2022-11-20T09:07:23;10.20;49.70
35299;DHT22;21415;48.054;16.646;2022-11-20T09:09:49;10.30;49.80
35299;DHT22;21415;48.054;16.646;2022-11-20T09:12:15;10.30;49.70
35299;DHT22;21415;48.054;16.646;2022-11-20T09:14:41;10.40;49.60
35299;DHT22;21415;48.054;16.646;2022-11-20T09:17:06;10.40;49.60
35299;DHT22;21415;48.054;16.646;2022-11-20T09:19:33;10.50;49.70
35299;DHT22;21415;48.054;16.646;2022-11-20T09:21:59;10.50;49.60
35299;DHT22;21415;48.054;16.646;2022-11-20T09:24:26;10.60;49.70
35299;DHT22;21415;48.054;16.646;2022-11-20T09:26:52;10.60;49.60
35299;DHT22;21415;48.054;16.646;2022-11-20T09:29:17;10.70;49.60
35299;DHT22;21415;48.054;16.646;2022-11-20T09:31:44;10.70;49.50
35299;DHT22;21415;48.054;16.646;2022-11-20T09:34:09;10.70;49.50
35299;DHT22;21415;48.054;16.646;2022-11-20T09:36:35;10.80;49.40
35299;DHT22;21415;48.054;16.646;2022-11-20T09:39:01;10.90;49.30
35299;DHT22;21415;48.054;16.646;2022-11-20T09:47:01;11.00;48.90
35299;DHT22;21415;48.054;16.646;2022-11-20T09:54:44;11.10;48.80
35299;DHT22;21415;48.054;16.646;2022-11-20T09:57:17;11.20;49.10
35299;DHT22;21415;48.054;16.646;2022-11-20T09:59:50;11.20;49.00
35299;DHT22;21415;48.054;16.646;2022-11-20T10:02:26;11.30;49.10
35299;DHT22;21415;48.054;16.646;2022-11-20T10:05:01;11.30;49.10
35299;DHT22;21415;48.054;16.646;2022-11-20T10:07:36;11.30;48.70
35299;DHT22;21415;48.054;16.646;2022-11-20T10:10:04;11.40;48.70
35299;DHT22;21415;48.054;16.646;2022-11-20T10:12:52;11.50;48.80
35299;DHT22;21415;48.054;16.646;2022-11-20T10:18:37;11.60;48.10
35299;DHT22;21415;48.054;16.646;2022-11-20T10:21:18;11.60;48.30
35299;DHT22;21415;48.054;16.646;2022-11-20T10:23:52;11.60;48.50
35299;DHT22;21415;48.054;16.646;2022-11-20T10:26:28;11.60;48.50
35299;DHT22;21415;48.054;16.646;2022-11-20T10:31:38;11.60;48.40
35299;DHT22;21415;48.054;16.646;2022-11-20T10:34:19;11.70;48.40
35299;DHT22;21415;48.054;16.646;2022-11-20T10:37:01;11.70;48.30
35299;DHT22;21415;48.054;16.646;2022-11-20T10:39:35;11.70;48.30
35299;DHT22;21415;48.054;16.646;2022-11-20T10:42:10;11.70;48.50
35299;DHT22;21415;48.054;16.646;2022-11-20T10:44:36;11.70;48.40
35299;DHT22;21415;48.054;16.646;2022-11-20T10:47:25;11.70;48.50
35299;DHT22;21415;48.054;16.646;2022-11-20T10:49:55;11.80;48.50
35299;DHT22;21415;48.054;16.646;2022-11-20T10:58:16;11.80;48.20
35299;DHT22;21415;48.054;16.646;2022-11-20T11:00:43;11.90;48.40
35299;DHT22;21415;48.054;16.646;2022-11-20T11:03:30;11.80;48.50
35299;DHT22;21415;48.054;16.646;2022-11-20T11:06:23;11.90;48.30
35299;DHT22;21415;48.054;16.646;2022-11-20T11:08:53;11.90;48.30
35299;DHT22;21415;48.054;16.646;2022-11-20T11:11:30;11.90;48.50
35299;DHT22;21415;48.054;16.646;2022-11-20T11:14:07;12.00;48.40
35299;DHT22;21415;48.054;16.646;2022-11-20T11:16:33;12.00;48.30
35299;DHT22;21415;48.054;16.646;2022-11-20T11:19:06;12.10;48.60
35299;DHT22;21415;48.054;16.646;2022-11-20T11:21:32;12.10;48.40
35299;DHT22;21415;48.054;16.646;2022-11-20T11:24:01;12.10;48.50
35299;DHT22;21415;48.054;16.646;2022-11-20T11:26:27;12.10;48.40
35299;DHT22;21415;48.054;16.646;2022-11-20T11:29:02;12.10;48.40
35299;DHT22;21415;48.054;16.646;2022-11-20T11:34:13;12.20;48.30
35299;DHT22;21415;48.054;16.646;2022-11-20T11:36:39;12.20;47.90
35299;DHT22;21415;48.054;16.646;2022-11-20T11:39:14;12.30;48.30
35299;DHT22;21415;48.054;16.646;2022-11-20T11:41:41;12.30;48.00
35299;DHT22;21415;48.054;16.646;2022-11-20T11:50:17;12.40;48.00
35299;DHT22;21415;48.054;16.646;2022-11-20T11:55:17;12.50;48.30
35299;DHT22;21415;48.054;16.646;2022-11-20T12:00:58;12.60;48.00
35299;DHT22;21415;48.054;16.646;2022-11-20T12:03:39;12.60;47.90
35299;DHT22;21415;48.054;16.646;2022-11-20T12:06:14;12.60;47.80
35299;DHT22;21415;48.054;16.646;2022-11-20T12:14:31;12.70;47.70
35299;DHT22;21415;48.054;16.646;2022-11-20T12:17:00;12.70;47.80
35299;DHT22;21415;48.054;16.646;2022-11-20T12:19:30;12.80;48.00
35299;DHT22;21415;48.054;16.646;2022-11-20T12:22:22;12.80;47.80
35299;DHT22;21415;48.054;16.646;2022-11-20T12:30:14;12.80;47.40
35299;DHT22;21415;48.054;16.646;2022-11-20T12:47:48;12.70;47.60
35299;DHT22;21415;48.054;16.646;2022-11-20T12:52:56;12.50;47.80
35299;DHT22;21415;48.054;16.646;2022-11-20T12:55:24;12.50;47.80
35299;DHT22;21415;48.054;16.646;2022-11-20T13:01:09;12.40;47.90
35299;DHT22;21415;48.054;16.646;2022-11-20T13:04:01;12.30;48.20
35299;DHT22;21415;48.054;16.646;2022-11-20T13:06:33;12.30;48.20
35299;DHT22;21415;48.054;16.646;2022-11-20T13:08:59;12.30;48.20
35299;DHT22;21415;48.054;16.646;2022-11-20T13:19:13;12.20;48.50
35299;DHT22;21415;48.054;16.646;2022-11-20T13:21:42;12.20;48.50
35299;DHT22;21415;48.054;16.646;2022-11-20T13:27:17;12.10;48.50
35299;DHT22;21415;48.054;16.646;2022-11-20T13:29:47;12.10;48.70
35299;DHT22;21415;48.054;16.646;2022-11-20T13:32:24;12.10;48.80
35299;DHT22;21415;48.054;16.646;2022-11-20T13:34:55;12.20;49.00
35299;DHT22;21415;48.054;16.646;2022-11-20T13:37:36;12.20;49.00
35299;DHT22;21415;48.054;16.646;2022-11-20T13:42:44;12.20;49.10
35299;DHT22;21415;48.054;16.646;2022-11-20T13:47:52;12.20;49.10
35299;DHT22;21415;48.054;16.646;2022-11-20T13:50:19;12.20;49.20
35299;DHT22;21415;48.054;16.646;2022-11-20T14:00:48;12.40;49.60
35299;DHT22;21415;48.054;16.646;2022-11-20T14:03:21;12.40;49.40
35299;DHT22;21415;48.054;16.646;2022-11-20T14:06:01;12.40;49.40
35299;DHT22;21415;48.054;16.646;2022-11-20T14:11:16;12.40;49.40
35299;DHT22;21415;48.054;16.646;2022-11-20T14:16:36;12.50;49.30
35299;DHT22;21415;48.054;16.646;2022-11-20T14:21:54;12.50;49.30
35299;DHT22;21415;48.054;16.646;2022-11-20T14:24:24;12.50;49.50
35299;DHT22;21415;48.054;16.646;2022-11-20T14:26:51;12.50;49.50
35299;DHT22;21415;48.054;16.646;2022-11-20T14:29:19;12.50;49.50
35299;DHT22;21415;48.054;16.646;2022-11-20T14:31:47;12.50;49.60
35299;DHT22;21415;48.054;16.646;2022-11-20T14:34:24;12.50;49.60
35299;DHT22;21415;48.054;16.646;2022-11-20T14:36:56;12.50;49.60
35299;DHT22;21415;48.054;16.646;2022-11-20T14:39:35;12.50;49.50
35299;DHT22;21415;48.054;16.646;2022-11-20T14:42:01;12.50;49.50
35299;DHT22;21415;48.054;16.646;2022-11-20T14:44:30;12.50;49.40
35299;DHT22;21415;48.054;16.646;2022-11-20T14:46:59;12.50;49.50
35299;DHT22;21415;48.054;16.646;2022-11-20T14:49:26;12.50;49.50
35299;DHT22;21415;48.054;16.646;2022-11-20T14:52:09;12.50;49.40
35299;DHT22;21415;48.054;16.646;2022-11-20T14:54:46;12.50;49.50
35299;DHT22;21415;48.054;16.646;2022-11-20T14:57:26;12.50;49.50
35299;DHT22;21415;48.054;16.646;2022-11-20T15:02:30;12.40;49.30
35299;DHT22;21415;48.054;16.646;2022-11-20T15:05:00;12.40;49.40
35299;DHT22;21415;48.054;16.646;2022-11-20T15:07:36;12.30;49.40
35299;DHT22;21415;48.054;16.646;2022-11-20T15:12:46;12.30;49.30
35299;DHT22;21415;48.054;16.646;2022-11-20T15:15:19;12.30;49.30
35299;DHT22;21415;48.054;16.646;2022-11-20T15:17:46;12.20;49.20
35299;DHT22;21415;48.054;16.646;2022-11-20T15:20:14;12.20;49.10
35299;DHT22;21415;48.054;16.646;2022-11-20T15:22:41;12.10;49.00
35299;DHT22;21415;48.054;16.646;2022-11-20T15:25:14;12.10;49.00
35299;DHT22;21415;48.054;16.646;2022-11-20T15:27:41;12.10;49.10
35299;DHT22;21415;48.054;16.646;2022-11-20T15:30:16;12.00;49.00
35299;DHT22;21415;48.054;16.646;2022-11-20T15:32:43;11.90;49.00
35299;DHT22;21415;48.054;16.646;2022-11-20T15:35:10;11.90;49.00
35299;DHT22;21415;48.054;16.646;2022-11-20T15:37:36;11.80;48.90
35299;DHT22;21415;48.054;16.646;2022-11-20T15:40:03;11.80;49.10
35299;DHT22;21415;48.054;16.646;2022-11-20T15:42:29;11.70;48.80
35299;DHT22;21415;48.054;16.646;2022-11-20T15:44:55;11.60;48.70
35299;DHT22;21415;48.054;16.646;2022-11-20T15:47:30;11.60;48.80
35299;DHT22;21415;48.054;16.646;2022-11-20T15:49:56;11.50;48.80
35299;DHT22;21415;48.054;16.646;2022-11-20T15:52:22;11.40;49.30
35299;DHT22;21415;48.054;16.646;2022-11-20T15:54:48;11.40;49.00
35299;DHT22;21415;48.054;16.646;2022-11-20T15:57:14;11.20;49.00
35299;DHT22;21415;48.054;16.646;2022-11-20T15:59:40;11.20;49.10
35299;DHT22;21415;48.054;16.646;2022-11-20T16:02:14;11.10;49.10
35299;DHT22;21415;48.054;16.646;2022-11-20T16:04:41;11.00;49.30
35299;DHT22;21415;48.054;16.646;2022-11-20T16:07:07;11.00;49.30
35299;DHT22;21415;48.054;16.646;2022-11-20T16:09:33;10.90;49.30
35299;DHT22;21415;48.054;16.646;2022-11-20T16:11:59;10.90;49.40
35299;DHT22;21415;48.054;16.646;2022-11-20T16:14:26;10.80;49.40
35299;DHT22;21415;48.054;16.646;2022-11-20T16:17:11;10.70;49.50
35299;DHT22;21415;48.054;16.646;2022-11-20T16:19:37;10.70;49.50
35299;DHT22;21415;48.054;16.646;2022-11-20T16:22:03;10.70;49.70
35299;DHT22;21415;48.054;16.646;2022-11-20T16:24:29;10.70;49.50
35299;DHT22;21415;48.054;16.646;2022-11-20T16:26:56;10.60;49.40
35299;DHT22;21415;48.054;16.646;2022-11-20T16:29:22;10.60;49.40
35299;DHT22;21415;48.054;16.646;2022-11-20T16:31:47;10.50;49.70
35299;DHT22;21415;48.054;16.646;2022-11-20T16:34:15;10.50;49.40
35299;DHT22;21415;48.054;16.646;2022-11-20T16:36:42;10.50;49.50
35299;DHT22;21415;48.054;16.646;2022-11-20T16:39:11;10.40;49.60
35299;DHT22;21415;48.054;16.646;2022-11-20T16:41:37;10.40;49.70
35299;DHT22;21415;48.054;16.646;2022-11-20T16:44:07;10.40;49.70
35299;DHT22;21415;48.054;16.646;2022-11-20T16:46:33;10.40;49.90
35299;DHT22;21415;48.054;16.646;2022-11-20T16:49:02;10.30;49.80
35299;DHT22;21415;48.054;16.646;2022-11-20T16:51:29;10.30;49.90
35299;DHT22;21415;48.054;16.646;2022-11-20T16:53:56;10.30;50.00
35299;DHT22;21415;48.054;16.646;2022-11-20T16:56:26;10.20;49.90
35299;DHT22;21415;48.054;16.646;2022-11-20T16:58:54;10.20;50.00
35299;DHT22;21415;48.054;16.646;2022-11-20T17:01:22;10.20;50.10
35299;DHT22;21415;48.054;16.646;2022-11-20T17:04:02;10.20;50.20
35299;DHT22;21415;48.054;16.646;2022-11-20T17:06:31;10.10;50.40
35299;DHT22;21415;48.054;16.646;2022-11-20T17:08:57;10.20;50.30
35299;DHT22;21415;48.054;16.646;2022-11-20T17:11:25;10.10;50.30
35299;DHT22;21415;48.054;16.646;2022-11-20T17:13:53;10.10;50.40
35299;DHT22;21415;48.054;16.646;2022-11-20T17:16:22;10.10;50.40
35299;DHT22;21415;48.054;16.646;2022-11-20T17:18:48;10.20;50.50
35299;DHT22;21415;48.054;16.646;2022-11-20T17:21:15;10.10;50.40
35299;DHT22;21415;48.054;16.646;2022-11-20T17:23:42;10.10;50.50